createdAt,value
2022-12-31T00:01:38.303Z,9.05
2022-12-31T00:04:24.597Z,5.72
2022-12-31T00:07:10.614Z,17.05
2022-12-31T00:09:56.929Z,6.20
2022-12-31T00:12:43.078Z,13.48
2022-12-31T00:15:29.135Z,19.83
2022-12-31T00:18:15.323Z,11.55
2022-12-31T00:21:07.689Z,25.48
2022-12-31T00:23:54.315Z,2.25
2022-12-31T00:26:40.670Z,2.90
2022-12-31T00:29:26.778Z,11.88
2022-12-31T00:32:12.923Z,2.05
2022-12-31T00:34:58.944Z,1.20
2022-12-31T00:37:45.223Z,2.45
2022-12-31T00:40:31.416Z,1.55
2022-12-31T00:43:17.806Z,9.80
2022-12-31T00:46:04.454Z,1.95
2022-12-31T00:48:51.217Z,2.53
2022-12-31T00:51:37.550Z,2.95
2022-12-31T00:54:23.808Z,1.73
2022-12-31T00:57:09.803Z,11.15
2022-12-31T00:59:56.084Z,1.75
2022-12-31T01:02:42.075Z,7.82
2022-12-31T01:05:28.220Z,3.75
2022-12-31T01:08:14.352Z,3.67
2022-12-31T01:11:19.508Z,3.75
2022-12-31T01:14:09.188Z,3.10
2022-12-31T01:17:13.825Z,4.07
2022-12-31T01:20:00.043Z,10.88
2022-12-31T01:22:46.189Z,3.80
2022-12-31T01:25:34.766Z,6.45
2022-12-31T01:28:20.963Z,1.58
2022-12-31T01:31:08.354Z,1.42
2022-12-31T01:33:54.430Z,1.50
2022-12-31T01:36:40.557Z,6.22
2022-12-31T01:39:27.357Z,3.63
2022-12-31T01:42:14.027Z,1.85
2022-12-31T01:45:00.545Z,1.65
2022-12-31T01:47:48.457Z,1.67
2022-12-31T01:50:35.933Z,3.53
2022-12-31T01:53:22.203Z,5.63
2022-12-31T01:56:08.236Z,3.90
2022-12-31T01:58:56.011Z,1.45
2022-12-31T02:01:42.613Z,1.27
2022-12-31T02:04:29.249Z,4.90
2022-12-31T02:07:15.253Z,1.17
2022-12-31T02:10:01.745Z,4.55
2022-12-31T02:12:48.204Z,6.35
2022-12-31T02:15:52.876Z,2.30
2022-12-31T02:18:44.753Z,2.85
2022-12-31T02:21:30.984Z,1.83
2022-12-31T02:24:20.127Z,2.25
2022-12-31T02:27:13.073Z,4.75
2022-12-31T02:30:01.950Z,4.22
2022-12-31T02:32:51.752Z,1.23
2022-12-31T02:35:37.642Z,2.70
2022-12-31T02:38:26.182Z,2.53
2022-12-31T02:41:33.311Z,1.50
2022-12-31T02:44:30.303Z,6.50
2022-12-31T02:47:27.720Z,2.47
2022-12-31T02:50:30.750Z,2.47
2022-12-31T02:53:26.164Z,1.88
2022-12-31T02:56:12.273Z,24.05
2022-12-31T02:59:22.409Z,2.03
2022-12-31T03:02:17.126Z,7.78
2022-12-31T03:05:03.939Z,2.88
2022-12-31T03:07:50.067Z,5.00
2022-12-31T03:10:36.404Z,6.32
2022-12-31T03:13:22.553Z,1.70
2022-12-31T03:16:08.313Z,1.02
2022-12-31T03:19:13.359Z,1.85
2022-12-31T03:22:18.094Z,5.50
2022-12-31T03:25:27.178Z,0.70
2022-12-31T03:28:14.757Z,0.98
2022-12-31T03:31:01.719Z,4.35
2022-12-31T03:33:47.759Z,2.80
2022-12-31T03:36:33.797Z,2.60
2022-12-31T03:39:19.920Z,11.07
2022-12-31T03:42:06.000Z,6.30
2022-12-31T03:44:52.120Z,9.07
2022-12-31T03:47:39.957Z,4.07
2022-12-31T03:50:26.270Z,7.47
2022-12-31T03:53:12.386Z,19.50
2022-12-31T03:55:58.539Z,2.05
2022-12-31T03:58:44.621Z,2.58
2022-12-31T04:01:32.098Z,5.97
2022-12-31T04:04:18.317Z,2.58
2022-12-31T04:07:04.393Z,5.15
2022-12-31T04:10:09.796Z,1.50
2022-12-31T04:12:55.878Z,1.55
2022-12-31T04:15:41.937Z,3.15
2022-12-31T04:18:27.969Z,2.30
2022-12-31T04:21:13.754Z,1.58
2022-12-31T04:24:00.002Z,5.47
2022-12-31T04:26:45.949Z,1.00
2022-12-31T04:29:32.183Z,1.52
2022-12-31T04:32:18.159Z,2.80
2022-12-31T04:35:04.530Z,2.45
2022-12-31T04:37:50.720Z,2.30
2022-12-31T04:40:56.779Z,3.38
2022-12-31T04:43:43.380Z,0.90
2022-12-31T04:46:30.597Z,2.00
2022-12-31T04:49:35.689Z,15.68
2022-12-31T04:52:21.894Z,0.60
2022-12-31T04:55:08.221Z,6.03
2022-12-31T04:57:54.153Z,0.80
2022-12-31T05:00:40.417Z,2.28
2022-12-31T05:03:27.033Z,1.98
2022-12-31T05:06:13.970Z,2.80
2022-12-31T05:09:00.164Z,1.65
2022-12-31T05:11:46.985Z,2.67
2022-12-31T05:14:33.143Z,2.83
2022-12-31T05:17:20.878Z,1.95
2022-12-31T05:20:09.526Z,1.42
2022-12-31T05:22:55.921Z,8.27
2022-12-31T05:25:42.923Z,2.60
2022-12-31T05:28:29.060Z,10.05
2022-12-31T05:31:15.394Z,33.38
2022-12-31T05:34:01.391Z,13.32
2022-12-31T05:36:47.529Z,11.48
2022-12-31T05:39:33.734Z,4.00
2022-12-31T05:42:19.751Z,2.67
2022-12-31T05:45:06.259Z,3.67
2022-12-31T05:47:52.196Z,5.05
2022-12-31T05:50:56.721Z,5.78
2022-12-31T05:53:42.738Z,1.48
2022-12-31T05:56:28.938Z,1.08
2022-12-31T05:59:15.138Z,3.65
2022-12-31T06:02:01.355Z,2.15
2022-12-31T06:04:47.563Z,1.27
2022-12-31T06:07:33.878Z,4.38
2022-12-31T06:10:20.050Z,12.27
2022-12-31T06:13:06.131Z,5.90
2022-12-31T06:15:55.048Z,3.47
2022-12-31T06:18:41.524Z,1.50
2022-12-31T06:21:27.784Z,1.70
2022-12-31T06:24:13.980Z,12.23
2022-12-31T06:27:00.279Z,1.98
2022-12-31T06:29:46.382Z,2.65
2022-12-31T06:32:32.705Z,68.65
2022-12-31T06:35:19.033Z,14.98
2022-12-31T06:38:05.284Z,6.13
2022-12-31T06:40:51.526Z,11.60
2022-12-31T06:43:38.248Z,11.10
2022-12-31T06:46:24.102Z,2.45
2022-12-31T06:49:10.310Z,3.80
2022-12-31T06:51:56.691Z,3.17
2022-12-31T06:54:42.972Z,4.28
2022-12-31T06:57:29.534Z,1.27
2022-12-31T07:00:16.015Z,13.02
2022-12-31T07:03:28.709Z,11.15
2022-12-31T07:06:26.742Z,4.63
2022-12-31T07:09:24.932Z,3.22
2022-12-31T07:12:16.816Z,2.30
2022-12-31T07:15:10.035Z,21.85
2022-12-31T07:18:01.717Z,3.42
2022-12-31T07:20:48.384Z,19.93
2022-12-31T07:23:34.802Z,4.32
2022-12-31T07:26:40.782Z,37.97
2022-12-31T07:29:47.001Z,32.92
2022-12-31T07:32:53.501Z,54.42
2022-12-31T07:35:43.855Z,48.17
2022-12-31T07:38:38.825Z,61.90
2022-12-31T07:41:43.755Z,51.03
2022-12-31T07:44:32.851Z,46.13
2022-12-31T07:47:26.286Z,94.32
2022-12-31T07:50:16.542Z,187.25
2022-12-31T07:53:02.811Z,68.85
2022-12-31T07:56:09.204Z,47.00
2022-12-31T07:58:55.984Z,52.15
2022-12-31T08:01:54.548Z,49.97
2022-12-31T08:04:48.545Z,104.88
2022-12-31T08:07:45.072Z,91.20
2022-12-31T08:10:36.206Z,70.75
2022-12-31T08:13:22.408Z,42.22
2022-12-31T08:16:12.522Z,62.13
2022-12-31T08:18:58.546Z,94.93
2022-12-31T08:22:03.260Z,105.75
2022-12-31T08:24:52.080Z,96.80
2022-12-31T08:27:43.996Z,64.95
2022-12-31T08:30:37.811Z,69.20
2022-12-31T08:33:42.618Z,72.57
2022-12-31T08:36:52.029Z,66.78
2022-12-31T08:40:13.194Z,71.63
2022-12-31T08:43:24.760Z,105.53
2022-12-31T08:46:18.285Z,97.70
2022-12-31T08:49:04.201Z,105.32
2022-12-31T08:51:50.399Z,91.28
2022-12-31T08:54:38.118Z,95.72
2022-12-31T08:57:42.358Z,98.45
2022-12-31T09:00:29.379Z,60.60
2022-12-31T09:03:33.480Z,64.30
2022-12-31T09:06:31.734Z,67.25
2022-12-31T09:09:22.557Z,64.03
2022-12-31T09:12:18.494Z,68.85
2022-12-31T09:15:14.593Z,66.85
2022-12-31T09:18:00.626Z,60.65
2022-12-31T09:20:48.131Z,53.65
2022-12-31T09:23:34.546Z,59.08
2022-12-31T09:26:39.593Z,54.92
2022-12-31T09:29:43.751Z,48.20
2022-12-31T09:32:48.608Z,42.45
2022-12-31T09:35:37.121Z,74.05
2022-12-31T09:38:42.303Z,50.15
2022-12-31T09:41:40.632Z,61.60
2022-12-31T09:44:35.978Z,54.20
2022-12-31T09:47:33.706Z,46.67
2022-12-31T09:50:21.255Z,57.35
2022-12-31T09:53:13.633Z,65.10
2022-12-31T09:56:29.111Z,50.22
2022-12-31T09:59:38.143Z,62.72
2022-12-31T10:02:43.326Z,59.25
2022-12-31T10:05:32.722Z,58.17
2022-12-31T10:08:22.090Z,44.65
2022-12-31T10:11:11.252Z,35.10
2022-12-31T10:14:16.290Z,43.22
2022-12-31T10:17:02.191Z,51.17
2022-12-31T10:20:07.307Z,44.55
2022-12-31T10:22:56.467Z,32.33
2022-12-31T10:25:45.565Z,35.03
2022-12-31T10:28:51.460Z,42.75
2022-12-31T10:31:37.363Z,25.73
2022-12-31T10:34:45.312Z,27.00
2022-12-31T10:37:43.619Z,36.00
2022-12-31T10:40:45.056Z,33.60
2022-12-31T10:43:46.673Z,29.35
2022-12-31T10:46:48.156Z,41.78
2022-12-31T10:49:52.853Z,31.13
2022-12-31T10:53:18.328Z,37.55
2022-12-31T10:56:22.702Z,35.05
2022-12-31T10:59:26.429Z,30.00
2022-12-31T11:02:12.797Z,30.35
2022-12-31T11:05:17.825Z,43.47
2022-12-31T11:08:15.604Z,49.50
2022-12-31T11:11:19.929Z,45.80
2022-12-31T11:14:16.322Z,45.22
2022-12-31T11:17:20.593Z,38.67
2022-12-31T11:20:27.461Z,31.73
2022-12-31T11:23:26.837Z,43.40
2022-12-31T11:26:18.986Z,37.33
2022-12-31T11:29:17.287Z,33.20
2022-12-31T11:32:21.787Z,37.05
2022-12-31T11:35:49.156Z,35.30
2022-12-31T11:38:59.290Z,41.03
2022-12-31T11:41:59.286Z,35.13
2022-12-31T11:45:02.490Z,41.80
2022-12-31T11:48:27.901Z,46.05
2022-12-31T11:50:57.993Z,34.85
2022-12-31T11:54:02.789Z,35.17
2022-12-31T11:56:53.938Z,34.40
2022-12-31T11:59:39.845Z,36.20
2022-12-31T12:02:29.036Z,41.35
2022-12-31T12:05:17.210Z,60.35
2022-12-31T12:08:03.668Z,49.67
2022-12-31T12:11:13.824Z,48.90
2022-12-31T12:13:59.768Z,60.85
2022-12-31T12:16:46.102Z,54.85
2022-12-31T12:19:33.068Z,52.10
2022-12-31T12:22:21.248Z,93.20
2022-12-31T12:25:27.655Z,135.48
2022-12-31T12:28:21.872Z,151.40
2022-12-31T12:31:07.786Z,46.40
2022-12-31T12:33:54.008Z,71.43
2022-12-31T12:36:46.198Z,58.97
2022-12-31T12:39:33.525Z,40.80
2022-12-31T12:42:23.803Z,54.63
2022-12-31T12:45:18.265Z,33.90
2022-12-31T12:48:09.266Z,28.20
2022-12-31T12:50:55.128Z,39.97
2022-12-31T12:54:07.732Z,35.10
2022-12-31T12:57:02.903Z,31.88
2022-12-31T12:59:48.800Z,26.65
2022-12-31T13:02:46.533Z,22.63
2022-12-31T13:05:32.479Z,32.15
2022-12-31T13:08:37.425Z,32.92
2022-12-31T13:11:26.297Z,47.92
2022-12-31T13:14:21.213Z,103.40
2022-12-31T13:17:10.383Z,39.53
2022-12-31T13:20:07.567Z,52.83
2022-12-31T13:22:56.611Z,35.33
2022-12-31T13:26:01.210Z,43.80
2022-12-31T13:28:50.801Z,45.15
2022-12-31T13:31:39.460Z,56.70
2022-12-31T13:34:27.433Z,65.78
2022-12-31T13:37:22.790Z,50.92
2022-12-31T13:40:32.982Z,37.40
2022-12-31T13:43:22.602Z,44.00
2022-12-31T13:46:14.985Z,46.55
2022-12-31T13:49:02.954Z,43.67
2022-12-31T13:52:15.375Z,41.95
2022-12-31T13:55:19.703Z,56.05
2022-12-31T13:58:19.725Z,54.70
2022-12-31T14:01:26.285Z,36.65
2022-12-31T14:04:21.445Z,38.00
2022-12-31T14:07:11.515Z,42.22
2022-12-31T14:09:58.138Z,36.53
2022-12-31T14:12:50.088Z,51.10
2022-12-31T14:15:36.094Z,48.65
2022-12-31T14:18:26.258Z,51.33
2022-12-31T14:21:22.519Z,63.78
2022-12-31T14:24:11.266Z,51.33
2022-12-31T14:26:58.493Z,63.33
2022-12-31T14:29:49.703Z,128.02
2022-12-31T14:32:35.512Z,225.20
2022-12-31T14:35:30.894Z,155.65
2022-12-31T14:38:25.978Z,81.80
2022-12-31T14:41:12.320Z,73.60
2022-12-31T14:44:12.627Z,117.40
2022-12-31T14:47:17.053Z,177.60
2022-12-31T14:50:11.371Z,166.18
2022-12-31T14:53:00.171Z,152.85
2022-12-31T14:55:56.227Z,161.02
2022-12-31T14:58:45.033Z,149.93
2022-12-31T15:01:31.285Z,108.25
2022-12-31T15:04:33.523Z,123.15
2022-12-31T15:07:29.086Z,146.95
2022-12-31T15:10:21.290Z,153.95
2022-12-31T15:13:27.618Z,138.43
2022-12-31T15:16:23.206Z,94.80
2022-12-31T15:19:24.294Z,83.47
2022-12-31T15:22:29.154Z,57.95
2022-12-31T15:25:40.402Z,60.78
2022-12-31T15:28:38.337Z,74.88
2022-12-31T15:31:25.330Z,66.43
2022-12-31T15:34:33.032Z,53.15
2022-12-31T15:37:35.393Z,40.03
2022-12-31T15:40:25.130Z,38.72
2022-12-31T15:43:17.613Z,28.25
2022-12-31T15:46:10.170Z,40.70
2022-12-31T15:49:18.287Z,97.40
2022-12-31T15:52:08.467Z,105.65
2022-12-31T15:54:57.895Z,99.72
2022-12-31T15:57:44.206Z,84.28
2022-12-31T16:00:38.043Z,82.63
2022-12-31T16:03:25.699Z,61.97
2022-12-31T16:06:12.847Z,67.07
2022-12-31T16:09:02.001Z,53.90
2022-12-31T16:11:57.109Z,104.18
2022-12-31T16:14:44.966Z,58.72
2022-12-31T16:17:34.995Z,16.83
2022-12-31T16:20:25.624Z,24.45
2022-12-31T16:23:35.174Z,73.82
2022-12-31T16:26:46.986Z,29.05
2022-12-31T16:29:35.578Z,47.50
2022-12-31T16:32:22.274Z,29.63
2022-12-31T16:35:47.244Z,18.73
2022-12-31T16:38:34.893Z,34.35
2022-12-31T16:41:21.939Z,4.88
2022-12-31T16:44:24.156Z,22.58
2022-12-31T16:47:15.428Z,7.45
2022-12-31T16:50:05.813Z,14.65
2022-12-31T16:52:58.014Z,49.30
2022-12-31T16:55:44.259Z,11.40
2022-12-31T16:58:34.754Z,31.77
2022-12-31T17:01:24.950Z,5.63
2022-12-31T17:04:15.440Z,23.42
2022-12-31T17:07:19.710Z,19.17
2022-12-31T17:10:08.635Z,173.77
2022-12-31T17:16:07.964Z,126.00
2022-12-31T17:18:57.343Z,31.98
2022-12-31T17:21:46.695Z,41.30
2022-12-31T17:24:32.758Z,44.88
2022-12-31T17:27:19.169Z,54.13
2022-12-31T17:30:24.068Z,124.57
2022-12-31T17:33:13.073Z,83.70
2022-12-31T17:36:19.809Z,52.00
2022-12-31T17:39:19.185Z,10.65
2022-12-31T17:42:05.314Z,27.17
2022-12-31T17:44:54.260Z,76.68
2022-12-31T17:47:41.589Z,23.55
2022-12-31T17:50:28.056Z,49.55
2022-12-31T17:53:14.670Z,30.00
2022-12-31T17:56:02.371Z,33.10
2022-12-31T17:58:52.671Z,43.80
2022-12-31T18:01:38.845Z,65.28
2022-12-31T18:04:43.684Z,17.73
2022-12-31T18:07:29.811Z,19.13
2022-12-31T18:10:17.008Z,12.75
2022-12-31T18:13:06.288Z,19.63
2022-12-31T18:15:52.937Z,14.63
2022-12-31T18:18:41.089Z,33.58
2022-12-31T18:21:34.665Z,20.15
2022-12-31T18:24:25.860Z,68.40
2022-12-31T18:27:14.936Z,19.40
2022-12-31T18:30:04.751Z,41.70
2022-12-31T18:32:51.526Z,20.58
2022-12-31T18:36:07.632Z,99.75
2022-12-31T18:38:44.469Z,36.63
2022-12-31T18:41:36.511Z,84.53
2022-12-31T18:44:26.669Z,18.77
2022-12-31T18:47:16.047Z,18.52
2022-12-31T18:50:01.784Z,45.55
2022-12-31T18:52:48.102Z,98.60
2022-12-31T18:55:38.023Z,38.47
2022-12-31T18:58:23.739Z,51.83
2022-12-31T19:01:22.450Z,25.08
2022-12-31T19:04:19.899Z,44.92
2022-12-31T19:07:09.238Z,6.45
2022-12-31T19:09:58.551Z,42.45
2022-12-31T19:12:45.011Z,50.88
2022-12-31T19:15:35.804Z,12.30
2022-12-31T19:18:21.803Z,9.80
2022-12-31T19:21:18.893Z,102.63
2022-12-31T19:24:24.858Z,21.65
2022-12-31T19:27:11.244Z,151.90
2022-12-31T19:29:57.080Z,84.10
2022-12-31T19:32:43.351Z,128.98
2022-12-31T19:35:29.678Z,54.92
2022-12-31T19:38:20.533Z,45.47
2022-12-31T19:41:12.912Z,60.50
2022-12-31T19:43:59.423Z,10.15
2022-12-31T19:46:46.314Z,22.20
2022-12-31T19:49:32.723Z,32.20
2022-12-31T19:52:18.810Z,49.38
2022-12-31T19:55:05.111Z,20.15
2022-12-31T19:57:51.501Z,72.38
2022-12-31T20:00:38.923Z,49.30
2022-12-31T20:03:25.675Z,93.75
2022-12-31T20:06:12.104Z,9.93
2022-12-31T20:08:58.312Z,15.82
2022-12-31T20:11:48.162Z,42.10
2022-12-31T20:14:36.573Z,13.73
2022-12-31T20:17:23.184Z,44.28
2022-12-31T20:20:09.994Z,15.75
2022-12-31T20:22:57.401Z,66.30
2022-12-31T20:25:43.468Z,16.95
2022-12-31T20:28:47.961Z,49.63
2022-12-31T20:31:34.244Z,47.22
2022-12-31T20:34:20.706Z,19.88
2022-12-31T20:37:06.847Z,48.90
2022-12-31T20:39:52.993Z,22.00
2022-12-31T20:42:40.948Z,35.05
2022-12-31T20:45:30.820Z,21.85
2022-12-31T20:48:17.348Z,57.30
2022-12-31T20:51:09.883Z,13.52
2022-12-31T20:53:57.876Z,20.48
2022-12-31T20:56:43.600Z,7.47
2022-12-31T20:59:29.823Z,13.05
2022-12-31T21:02:21.396Z,5.20
2022-12-31T21:05:08.476Z,9.32
2022-12-31T21:07:54.517Z,18.77
2022-12-31T21:10:41.902Z,12.27
2022-12-31T21:13:30.261Z,27.45
2022-12-31T21:16:16.442Z,18.40
2022-12-31T21:19:02.622Z,24.08
2022-12-31T21:21:54.962Z,86.38
2022-12-31T21:27:27.453Z,38.92
2022-12-31T21:30:18.830Z,21.00
2022-12-31T21:33:05.587Z,14.18
2022-12-31T21:35:53.926Z,10.32
2022-12-31T21:38:40.854Z,33.30
2022-12-31T21:41:45.725Z,26.20
2022-12-31T21:44:31.973Z,18.33
2022-12-31T21:47:42.548Z,18.13
2022-12-31T21:50:33.531Z,89.22
2022-12-31T21:53:24.805Z,6.85
2022-12-31T21:56:32.341Z,20.48
2022-12-31T21:59:41.295Z,20.48
2022-12-31T22:03:06.183Z,7.63
2022-12-31T22:05:55.490Z,7.00
2022-12-31T22:08:45.707Z,7.82
2022-12-31T22:11:31.931Z,5.25
2022-12-31T22:14:18.338Z,12.80
2022-12-31T22:17:04.304Z,7.10
2022-12-31T22:20:25.409Z,35.22
2022-12-31T22:22:56.768Z,3.95
2022-12-31T22:25:42.919Z,4.55
2022-12-31T22:28:40.205Z,12.82
2022-12-31T22:31:27.199Z,10.10
2022-12-31T22:34:17.097Z,4.97
2022-12-31T22:37:20.307Z,9.80
2022-12-31T22:40:09.958Z,4.07
2022-12-31T22:42:56.305Z,15.40
2022-12-31T22:45:42.676Z,10.73
2022-12-31T22:48:47.751Z,9.38
2022-12-31T22:51:56.452Z,42.08
2022-12-31T22:54:58.879Z,19.63
2022-12-31T22:57:45.088Z,338.67
2022-12-31T23:00:38.638Z,43.72
2022-12-31T23:03:24.640Z,74.05
2022-12-31T23:06:10.819Z,7.20
2022-12-31T23:09:15.593Z,8.68
2022-12-31T23:12:01.606Z,22.17
2022-12-31T23:15:05.951Z,67.85
2022-12-31T23:18:10.673Z,19.05
2022-12-31T23:21:15.239Z,44.35
2022-12-31T23:24:01.354Z,27.77
2022-12-31T23:26:47.698Z,14.07
2022-12-31T23:29:33.781Z,11.48
2022-12-31T23:32:19.948Z,11.20
2022-12-31T23:35:10.029Z,33.55
2022-12-31T23:37:56.690Z,25.35
2022-12-31T23:40:43.315Z,6.97
2022-12-31T23:43:29.765Z,14.02
2022-12-31T23:46:19.353Z,13.60
2022-12-31T23:49:06.155Z,16.27
2022-12-31T23:51:55.338Z,5.40
2022-12-31T23:54:41.592Z,6.22
2022-12-31T23:57:31.156Z,17.35
